createdAt,value
2018-02-16T00:01:43.423Z,235.37
2018-02-16T00:04:11.705Z,336.00
2018-02-16T00:06:40.042Z,190.95
2018-02-16T00:09:08.337Z,345.20
2018-02-16T00:11:37.399Z,378.70
2018-02-16T00:14:05.692Z,407.75
2018-02-16T00:16:33.960Z,399.85
2018-02-16T00:19:02.219Z,295.83
2018-02-16T00:21:30.476Z,228.68
2018-02-16T00:23:59.506Z,268.30
2018-02-16T00:26:27.766Z,266.27
2018-02-16T00:28:56.072Z,281.33
2018-02-16T00:31:24.340Z,262.73
2018-02-16T00:33:52.601Z,206.18
2018-02-16T00:36:20.895Z,190.18
2018-02-16T00:38:49.162Z,190.95
2018-02-16T00:41:17.436Z,178.57
2018-02-16T00:43:45.703Z,137.65
2018-02-16T00:46:13.985Z,371.87
2018-02-16T00:48:42.259Z,244.60
2018-02-16T00:51:10.510Z,202.48
2018-02-16T00:53:38.797Z,179.48
2018-02-16T00:56:07.069Z,278.23
2018-02-16T00:58:36.106Z,327.52
2018-02-16T01:01:04.385Z,339.12
2018-02-16T01:03:32.675Z,465.92
2018-02-16T01:06:00.964Z,218.10
2018-02-16T01:08:29.258Z,229.57
2018-02-16T01:10:58.472Z,188.37
2018-02-16T01:13:26.733Z,112.88
2018-02-16T01:15:55.015Z,208.60
2018-02-16T01:18:24.028Z,163.57
2018-02-16T01:20:52.326Z,160.88
2018-02-16T01:23:20.587Z,166.40
2018-02-16T01:25:48.843Z,149.03
2018-02-16T01:28:17.090Z,162.70
2018-02-16T01:30:46.131Z,137.82
2018-02-16T01:33:14.373Z,123.85
2018-02-16T01:35:42.672Z,110.20
2018-02-16T01:38:10.939Z,122.62
2018-02-16T01:40:39.204Z,111.62
2018-02-16T01:43:08.220Z,102.65
2018-02-16T01:45:36.482Z,108.15
2018-02-16T01:48:04.762Z,105.47
2018-02-16T01:50:33.033Z,122.97
2018-02-16T01:53:01.300Z,108.47
2018-02-16T01:55:30.367Z,103.43
2018-02-16T01:57:58.606Z,114.47
2018-02-16T02:00:26.895Z,109.15
2018-02-16T02:02:55.136Z,126.60
2018-02-16T02:05:23.398Z,93.82
2018-02-16T02:07:51.693Z,252.10
2018-02-16T02:10:19.970Z,160.10
2018-02-16T02:12:48.218Z,221.35
2018-02-16T02:15:17.259Z,218.40
2018-02-16T02:17:45.511Z,129.30
2018-02-16T02:20:13.763Z,426.80
2018-02-16T02:22:42.034Z,148.90
2018-02-16T02:25:11.061Z,153.65
2018-02-16T02:27:39.327Z,128.23
2018-02-16T02:30:07.596Z,124.03
2018-02-16T02:32:35.847Z,128.37
2018-02-16T02:35:04.869Z,120.55
2018-02-16T02:37:33.131Z,116.05
2018-02-16T02:40:02.167Z,123.10
2018-02-16T02:42:30.440Z,130.27
2018-02-16T02:44:58.695Z,130.75
2018-02-16T02:47:26.949Z,136.07
2018-02-16T02:49:55.977Z,123.18
2018-02-16T02:52:24.244Z,123.15
2018-02-16T02:54:52.508Z,122.43
2018-02-16T02:57:20.766Z,130.30
2018-02-16T02:59:49.823Z,130.30
2018-02-16T03:02:18.067Z,109.87
2018-02-16T03:04:46.364Z,106.37
2018-02-16T03:07:15.399Z,102.10
2018-02-16T03:09:44.441Z,81.82
2018-02-16T03:12:12.678Z,95.25
2018-02-16T03:14:40.942Z,99.20
2018-02-16T03:17:09.978Z,107.40
2018-02-16T03:19:38.279Z,102.55
2018-02-16T03:22:06.549Z,99.37
2018-02-16T03:24:34.826Z,90.62
2018-02-16T03:27:03.136Z,95.97
2018-02-16T03:29:31.428Z,99.57
2018-02-16T03:32:00.498Z,104.43
2018-02-16T03:34:28.816Z,109.47
2018-02-16T03:36:57.139Z,102.53
2018-02-16T03:39:25.736Z,117.37
2018-02-16T03:41:54.776Z,121.60
2018-02-16T03:44:23.050Z,119.07
2018-02-16T03:46:51.328Z,123.13
2018-02-16T03:49:19.580Z,119.35
2018-02-16T03:51:48.656Z,107.60
2018-02-16T03:54:16.909Z,120.80
2018-02-16T03:56:45.252Z,108.65
2018-02-16T03:59:13.764Z,120.13
2018-02-16T04:01:41.885Z,128.10
2018-02-16T04:04:10.926Z,127.37
2018-02-16T04:06:39.217Z,110.35
2018-02-16T04:09:07.548Z,121.28
2018-02-16T04:11:35.928Z,99.53
2018-02-16T04:14:04.257Z,99.03
2018-02-16T04:16:32.580Z,105.75
2018-02-16T04:19:00.907Z,109.05
2018-02-16T04:21:29.226Z,85.07
2018-02-16T04:23:57.537Z,110.43
2018-02-16T04:26:25.861Z,91.32
2018-02-16T04:28:54.944Z,109.75
2018-02-16T04:31:23.253Z,96.20
2018-02-16T04:33:51.633Z,100.60
2018-02-16T04:36:20.756Z,107.07
2018-02-16T04:38:49.136Z,100.80
2018-02-16T04:41:17.438Z,103.63
2018-02-16T04:43:45.767Z,105.30
2018-02-16T04:46:14.077Z,112.00
2018-02-16T04:48:42.436Z,88.60
2018-02-16T04:51:10.782Z,106.40
2018-02-16T04:53:39.140Z,94.85
2018-02-16T04:56:08.279Z,119.40
2018-02-16T04:58:36.614Z,110.60
2018-02-16T05:01:05.711Z,111.45
2018-02-16T05:03:34.812Z,104.03
2018-02-16T05:06:03.897Z,88.77
2018-02-16T05:08:32.277Z,103.43
2018-02-16T05:11:01.450Z,119.07
2018-02-16T05:13:29.766Z,113.05
2018-02-16T05:15:58.094Z,115.12
2018-02-16T05:18:26.412Z,131.37
2018-02-16T05:20:55.488Z,125.28
2018-02-16T05:23:23.840Z,128.00
2018-02-16T05:25:52.169Z,140.97
2018-02-16T05:28:21.277Z,117.97
2018-02-16T05:30:49.602Z,130.80
2018-02-16T05:33:17.932Z,138.53
2018-02-16T05:35:46.290Z,122.33
2018-02-16T05:38:15.361Z,114.40
2018-02-16T05:40:43.742Z,123.95
2018-02-16T05:43:12.070Z,115.13
2018-02-16T05:45:40.411Z,134.48
2018-02-16T05:48:08.706Z,125.57
2018-02-16T05:50:37.052Z,121.72
2018-02-16T05:53:05.382Z,129.52
2018-02-16T05:55:33.742Z,128.90
2018-02-16T05:58:02.092Z,156.60
2018-02-16T06:00:30.429Z,206.20
2018-02-16T06:02:58.777Z,170.02
2018-02-16T06:05:27.175Z,187.32
2018-02-16T06:07:55.597Z,213.23
2018-02-16T06:10:23.957Z,160.27
2018-02-16T06:12:52.305Z,261.55
2018-02-16T06:15:20.617Z,214.70
2018-02-16T06:17:48.963Z,221.70
2018-02-16T06:20:17.307Z,270.67
2018-02-16T06:22:46.438Z,294.35
2018-02-16T06:25:14.801Z,298.70
2018-02-16T06:27:43.151Z,365.35
2018-02-16T06:30:12.357Z,205.40
2018-02-16T06:32:41.540Z,213.65
2018-02-16T06:35:10.661Z,188.93
2018-02-16T06:37:39.120Z,90.47
2018-02-16T06:40:07.456Z,97.40
2018-02-16T06:42:35.815Z,80.80
2018-02-16T06:45:04.150Z,65.57
2018-02-16T06:47:33.251Z,66.70
2018-02-16T06:50:02.407Z,74.90
2018-02-16T06:52:30.741Z,47.22
2018-02-16T06:54:59.117Z,43.15
2018-02-16T06:57:27.489Z,49.10
2018-02-16T06:59:55.867Z,41.60
2018-02-16T07:02:24.281Z,43.72
2018-02-16T07:04:52.691Z,47.83
2018-02-16T07:07:21.091Z,42.22
2018-02-16T07:09:50.280Z,40.35
2018-02-16T07:12:20.151Z,45.37
2018-02-16T07:14:48.511Z,42.55
2018-02-16T07:17:16.818Z,34.35
2018-02-16T07:19:46.238Z,36.97
2018-02-16T07:22:15.574Z,38.47
2018-02-16T07:24:43.930Z,29.37
2018-02-16T07:27:12.985Z,28.67
2018-02-16T07:29:41.255Z,32.10
2018-02-16T07:32:09.570Z,34.77
2018-02-16T07:34:37.864Z,33.10
2018-02-16T07:37:06.916Z,34.70
2018-02-16T07:39:36.005Z,34.33
2018-02-16T07:42:04.281Z,32.60
2018-02-16T07:44:32.578Z,35.80
2018-02-16T07:47:00.856Z,27.27
2018-02-16T07:49:29.128Z,28.87
2018-02-16T07:51:57.408Z,29.07
2018-02-16T07:54:25.900Z,24.70
2018-02-16T07:56:54.181Z,19.45
2018-02-16T07:59:22.466Z,19.53
2018-02-16T08:01:51.521Z,20.60
2018-02-16T08:04:19.832Z,24.10
2018-02-16T08:06:48.138Z,24.73
2018-02-16T08:09:16.411Z,24.00
2018-02-16T08:11:44.700Z,26.53
2018-02-16T08:14:13.000Z,23.77
2018-02-16T08:16:41.324Z,26.67
2018-02-16T08:19:10.368Z,26.90
2018-02-16T08:21:38.690Z,27.77
2018-02-16T08:24:07.734Z,22.43
2018-02-16T08:26:36.030Z,16.57
2018-02-16T08:29:04.299Z,27.67
2018-02-16T08:31:32.619Z,26.30
2018-02-16T08:34:01.697Z,24.30
2018-02-16T08:36:30.002Z,26.80
2018-02-16T08:38:58.401Z,26.40
2018-02-16T08:41:26.671Z,26.90
2018-02-16T08:43:54.933Z,22.27
2018-02-16T08:46:23.238Z,30.23
2018-02-16T08:48:51.524Z,28.37
2018-02-16T08:51:19.804Z,29.10
2018-02-16T08:53:48.076Z,30.43
2018-02-16T08:56:16.345Z,28.57
2018-02-16T08:58:44.666Z,32.57
2018-02-16T09:01:12.936Z,26.20
2018-02-16T09:03:41.226Z,27.60
2018-02-16T09:06:10.262Z,37.80
2018-02-16T09:08:38.556Z,29.40
2018-02-16T09:11:06.859Z,31.93
2018-02-16T09:13:35.141Z,20.30
2018-02-16T09:16:03.419Z,25.43
2018-02-16T09:18:32.470Z,22.93
2018-02-16T09:21:00.771Z,26.23
2018-02-16T09:23:29.061Z,26.00
2018-02-16T09:25:57.355Z,29.90
2018-02-16T09:28:26.432Z,29.17
2018-02-16T09:30:54.713Z,21.97
2018-02-16T09:33:23.807Z,24.40
2018-02-16T09:35:52.079Z,25.03
2018-02-16T09:38:21.159Z,23.70
2018-02-16T09:40:49.456Z,20.00
2018-02-16T09:43:18.502Z,18.90
2018-02-16T09:45:46.771Z,24.40
2018-02-16T09:48:15.055Z,20.43
2018-02-16T09:50:43.342Z,20.73
2018-02-16T09:53:11.664Z,22.67
2018-02-16T09:55:40.731Z,24.00
2018-02-16T09:58:08.998Z,24.03
2018-02-16T10:00:37.343Z,19.30
2018-02-16T10:03:05.634Z,24.37
2018-02-16T10:05:33.944Z,20.93
2018-02-16T10:08:02.219Z,22.03
2018-02-16T10:10:30.632Z,11.97
2018-02-16T10:12:58.959Z,19.60
2018-02-16T10:15:27.273Z,23.47
2018-02-16T10:17:56.315Z,22.70
2018-02-16T10:20:24.589Z,21.00
2018-02-16T10:22:52.878Z,20.37
2018-02-16T10:25:21.172Z,24.83
2018-02-16T10:27:49.462Z,19.93
2018-02-16T10:30:18.523Z,20.47
2018-02-16T10:32:46.869Z,24.43
2018-02-16T10:35:15.163Z,19.20
2018-02-16T10:37:43.524Z,20.00
2018-02-16T10:40:11.796Z,19.60
2018-02-16T10:42:40.090Z,14.40
2018-02-16T10:45:08.371Z,14.07
2018-02-16T10:47:36.676Z,14.40
2018-02-16T10:50:04.952Z,14.23
2018-02-16T10:52:33.248Z,21.53
2018-02-16T10:55:02.343Z,13.33
2018-02-16T10:57:30.642Z,18.27
2018-02-16T10:59:58.920Z,16.60
2018-02-16T11:02:32.598Z,17.63
2018-02-16T11:05:07.197Z,16.17
2018-02-16T11:07:41.119Z,19.83
2018-02-16T11:10:09.424Z,22.13
2018-02-16T11:12:37.717Z,22.33
2018-02-16T11:15:06.041Z,19.77
2018-02-16T11:17:34.352Z,18.40
2018-02-16T11:20:02.636Z,18.63
2018-02-16T11:22:30.928Z,17.33
2018-02-16T11:24:59.229Z,20.53
2018-02-16T11:27:27.518Z,11.90
2018-02-16T11:29:55.802Z,18.83
2018-02-16T11:32:24.084Z,13.30
2018-02-16T11:34:52.353Z,21.10
2018-02-16T11:37:20.657Z,15.80
2018-02-16T11:39:49.682Z,16.20
2018-02-16T11:42:17.947Z,19.00
2018-02-16T11:44:46.226Z,20.37
2018-02-16T11:47:14.491Z,18.97
2018-02-16T11:49:42.782Z,13.33
2018-02-16T11:52:11.141Z,18.47
2018-02-16T11:54:39.420Z,13.00
2018-02-16T11:57:07.733Z,17.00
2018-02-16T11:59:36.843Z,14.23
2018-02-16T12:02:05.161Z,12.07
2018-02-16T12:04:33.478Z,15.80
2018-02-16T12:07:01.789Z,12.77
2018-02-16T12:09:30.110Z,17.77
2018-02-16T12:11:58.429Z,14.13
2018-02-16T12:14:27.509Z,12.20
2018-02-16T12:16:55.825Z,15.63
2018-02-16T12:19:24.888Z,14.90
2018-02-16T12:21:53.179Z,12.17
2018-02-16T12:24:21.475Z,11.27
2018-02-16T12:26:49.763Z,12.17
2018-02-16T12:29:18.792Z,11.67
2018-02-16T12:31:47.117Z,13.10
2018-02-16T12:34:15.421Z,12.87
2018-02-16T12:36:43.738Z,13.43
2018-02-16T12:39:12.019Z,16.57
2018-02-16T12:41:40.360Z,15.30
2018-02-16T12:44:09.393Z,13.63
2018-02-16T12:46:37.706Z,15.70
2018-02-16T12:49:06.767Z,14.20
2018-02-16T12:51:35.064Z,17.70
2018-02-16T12:54:04.105Z,17.83
2018-02-16T12:56:32.412Z,17.53
2018-02-16T12:59:00.704Z,16.43
2018-02-16T13:01:29.038Z,16.83
2018-02-16T13:03:57.336Z,15.47
2018-02-16T13:06:25.645Z,20.67
2018-02-16T13:08:53.960Z,13.83
2018-02-16T13:11:22.293Z,26.53
2018-02-16T13:13:51.377Z,17.03
2018-02-16T13:16:19.686Z,16.40
2018-02-16T13:18:48.757Z,24.60
2018-02-16T13:21:17.101Z,20.00
2018-02-16T13:23:45.429Z,30.07
2018-02-16T13:26:13.756Z,21.03
2018-02-16T13:28:42.081Z,16.17
2018-02-16T13:31:11.178Z,17.67
2018-02-16T13:33:40.267Z,17.97
2018-02-16T13:36:09.386Z,13.70
2018-02-16T13:38:37.738Z,16.50
2018-02-16T13:41:06.882Z,15.80
2018-02-16T13:43:35.211Z,14.10
2018-02-16T13:46:04.317Z,15.47
2018-02-16T13:48:32.649Z,13.37
2018-02-16T13:51:00.972Z,15.80
2018-02-16T13:53:29.325Z,18.37
2018-02-16T13:55:57.637Z,15.43
2018-02-16T13:58:25.966Z,17.70
2018-02-16T14:00:54.262Z,18.20
2018-02-16T14:03:23.358Z,18.00
2018-02-16T14:05:51.665Z,21.23
2018-02-16T14:08:20.002Z,29.10
2018-02-16T14:10:48.345Z,18.30
2018-02-16T14:13:16.645Z,20.27
2018-02-16T14:15:44.961Z,23.63
2018-02-16T14:18:13.301Z,20.47
2018-02-16T14:20:41.587Z,18.07
2018-02-16T14:23:09.938Z,17.73
2018-02-16T14:25:38.257Z,17.33
2018-02-16T14:28:07.354Z,19.73
2018-02-16T14:30:36.425Z,14.03
2018-02-16T14:33:04.763Z,17.10
2018-02-16T14:35:33.084Z,15.03
2018-02-16T14:38:01.395Z,16.10
2018-02-16T14:40:29.705Z,18.00
2018-02-16T14:42:58.802Z,15.73
2018-02-16T14:45:27.097Z,19.30
2018-02-16T14:47:55.426Z,18.87
2018-02-16T14:50:23.730Z,22.37
2018-02-16T14:52:52.060Z,16.10
2018-02-16T14:55:21.132Z,19.43
2018-02-16T14:57:49.485Z,19.43
2018-02-16T15:00:17.818Z,24.90
2018-02-16T15:02:46.143Z,17.57
2018-02-16T15:05:16.147Z,18.73
2018-02-16T15:08:35.801Z,22.10
2018-02-16T15:11:16.506Z,17.97
2018-02-16T15:13:46.726Z,22.43
2018-02-16T15:16:15.126Z,22.80
2018-02-16T15:18:44.022Z,27.17
2018-02-16T15:21:12.368Z,21.67
2018-02-16T15:23:42.481Z,23.27
2018-02-16T15:26:11.514Z,21.90
2018-02-16T15:28:39.895Z,29.17
2018-02-16T15:31:08.871Z,21.97
2018-02-16T15:33:37.204Z,19.20
2018-02-16T15:42:07.568Z,34.57
2018-02-16T15:44:39.457Z,28.57
2018-02-16T15:47:14.945Z,31.13
2018-02-16T15:50:31.817Z,27.10
2018-02-16T15:53:00.177Z,30.67
2018-02-16T15:55:28.508Z,26.53
2018-02-16T15:58:09.102Z,27.63
2018-02-16T16:00:37.543Z,30.57
2018-02-16T16:03:05.874Z,34.30
2018-02-16T16:05:34.117Z,70.63
2018-02-16T16:08:02.535Z,55.13
2018-02-16T16:10:30.878Z,47.80
2018-02-16T16:12:59.925Z,44.33
2018-02-16T16:15:28.230Z,49.60
2018-02-16T16:17:56.474Z,38.10
2018-02-16T16:20:24.735Z,80.90
2018-02-16T16:22:52.999Z,61.43
2018-02-16T16:25:21.255Z,37.10
2018-02-16T16:27:49.506Z,368.93
2018-02-16T16:30:18.078Z,300.23
2018-02-16T16:32:46.400Z,45.58
2018-02-16T16:35:14.722Z,44.57
2018-02-16T16:37:43.032Z,53.00
2018-02-16T16:40:12.126Z,49.47
2018-02-16T16:42:41.176Z,50.90
2018-02-16T16:45:09.500Z,51.42
2018-02-16T16:47:37.830Z,49.50
2018-02-16T16:50:06.939Z,61.80
2018-02-16T16:52:35.233Z,60.28
2018-02-16T16:55:04.301Z,59.63
2018-02-16T16:57:32.600Z,58.40
2018-02-16T17:00:01.783Z,67.22
2018-02-16T17:02:30.864Z,69.32
2018-02-16T17:04:59.213Z,79.05
2018-02-16T17:07:27.526Z,68.60
2018-02-16T17:09:55.807Z,81.57
2018-02-16T17:12:24.089Z,73.22
2018-02-16T17:14:52.351Z,74.75
2018-02-16T17:17:20.663Z,75.78
2018-02-16T17:19:49.691Z,71.53
2018-02-16T17:22:17.963Z,64.00
2018-02-16T17:24:46.254Z,67.68
2018-02-16T17:27:14.508Z,63.65
2018-02-16T17:29:42.750Z,81.60
2018-02-16T17:32:11.773Z,69.80
2018-02-16T17:34:40.021Z,82.37
2018-02-16T17:37:09.061Z,76.05
2018-02-16T17:39:37.305Z,79.12
2018-02-16T17:42:06.324Z,90.43
2018-02-16T17:44:34.576Z,68.75
2018-02-16T17:47:02.834Z,87.68
2018-02-16T17:49:31.858Z,81.35
2018-02-16T17:52:00.138Z,94.93
2018-02-16T17:54:28.386Z,83.05
2018-02-16T17:56:57.395Z,85.57
2018-02-16T17:59:25.657Z,89.05
2018-02-16T18:01:54.669Z,100.85
2018-02-16T18:04:22.929Z,86.90
2018-02-16T18:06:51.948Z,111.22
2018-02-16T18:09:20.210Z,87.57
2018-02-16T18:11:48.462Z,110.32
2018-02-16T18:14:17.481Z,123.47
2018-02-16T18:16:45.737Z,108.63
2018-02-16T18:19:14.766Z,108.07
2018-02-16T18:21:43.017Z,104.97
2018-02-16T18:24:11.269Z,111.53
2018-02-16T18:26:40.284Z,111.97
2018-02-16T18:29:08.547Z,118.00
2018-02-16T18:31:37.575Z,105.57
2018-02-16T18:34:05.836Z,102.20
2018-02-16T18:36:34.088Z,113.40
2018-02-16T18:39:03.117Z,103.68
2018-02-16T18:41:31.364Z,97.78
2018-02-16T18:44:00.473Z,105.97
2018-02-16T18:46:28.733Z,111.62
2018-02-16T18:48:58.465Z,115.25
2018-02-16T18:51:26.714Z,111.18
2018-02-16T18:53:55.724Z,111.70
2018-02-16T18:56:23.993Z,117.13
2018-02-16T18:58:53.014Z,111.30
2018-02-16T19:01:21.282Z,130.77
2018-02-16T19:03:49.530Z,154.82
2018-02-16T19:06:18.566Z,155.50
2018-02-16T19:08:46.813Z,156.25
2018-02-16T19:11:15.077Z,138.02
2018-02-16T19:13:44.096Z,149.27
2018-02-16T19:16:12.358Z,136.05
2018-02-16T19:18:40.608Z,126.75
2018-02-16T19:21:09.633Z,139.10
2018-02-16T19:23:37.892Z,122.90
2018-02-16T19:26:06.921Z,129.30
2018-02-16T19:28:35.170Z,124.38
2018-02-16T19:31:03.738Z,117.30
2018-02-16T19:33:32.335Z,113.80
2018-02-16T19:36:01.184Z,151.65
2018-02-16T19:38:29.506Z,132.10
2018-02-16T19:40:57.760Z,150.25
2018-02-16T19:43:26.786Z,131.10
2018-02-16T19:45:55.038Z,141.45
2018-02-16T19:48:24.073Z,145.18
2018-02-16T19:50:52.346Z,130.02
2018-02-16T19:53:20.640Z,153.85
2018-02-16T19:55:48.911Z,152.27
2018-02-16T19:58:17.712Z,143.50
2018-02-16T20:00:46.053Z,113.47
2018-02-16T20:03:14.307Z,108.95
2018-02-16T20:05:43.341Z,82.30
2018-02-16T20:08:11.601Z,79.20
2018-02-16T20:10:40.312Z,81.63
2018-02-16T20:13:08.646Z,79.53
2018-02-16T20:15:36.971Z,79.90
2018-02-16T20:18:05.313Z,86.28
2018-02-16T20:20:34.036Z,95.80
2018-02-16T20:23:02.422Z,101.32
2018-02-16T20:25:30.754Z,102.50
2018-02-16T20:27:59.086Z,116.88
2018-02-16T20:30:27.438Z,135.57
2018-02-16T20:32:55.775Z,121.32
2018-02-16T20:35:24.105Z,149.85
2018-02-16T20:37:52.455Z,144.30
2018-02-16T20:40:20.734Z,136.80
2018-02-16T20:42:49.203Z,142.20
2018-02-16T20:45:17.500Z,133.63
2018-02-16T20:47:45.768Z,157.15
2018-02-16T20:50:14.119Z,150.68
2018-02-16T20:52:42.431Z,158.87
2018-02-16T20:55:10.778Z,142.50
2018-02-16T20:57:39.089Z,163.82
2018-02-16T21:00:08.303Z,151.98
2018-02-16T21:02:37.532Z,162.40
2018-02-16T21:05:05.862Z,158.90
2018-02-16T21:07:34.172Z,143.37
2018-02-16T21:10:02.512Z,178.00
2018-02-16T21:12:30.848Z,175.73
2018-02-16T21:14:59.945Z,176.00
2018-02-16T21:17:28.225Z,173.85
2018-02-16T21:19:56.540Z,176.07
2018-02-16T21:22:25.618Z,328.67
2018-02-16T21:24:53.928Z,259.80
2018-02-16T21:27:22.251Z,338.17
2018-02-16T21:29:50.638Z,512.20
2018-02-16T21:32:19.033Z,531.70
2018-02-16T21:34:47.443Z,626.53
2018-02-16T21:37:15.764Z,534.87
2018-02-16T21:39:44.070Z,541.78
2018-02-16T21:42:12.396Z,604.97
2018-02-16T21:44:41.472Z,536.60
2018-02-16T21:47:09.801Z,485.63
2018-02-16T21:49:38.163Z,553.67
2018-02-16T21:52:06.484Z,558.55
2018-02-16T21:54:34.829Z,617.40
2018-02-16T21:57:03.144Z,619.10
2018-02-16T21:59:31.434Z,533.97
2018-02-16T22:01:59.742Z,658.55
2018-02-16T22:04:28.829Z,772.13
2018-02-16T22:06:57.889Z,698.58
2018-02-16T22:09:26.459Z,639.60
2018-02-16T22:11:54.783Z,809.22
2018-02-16T22:14:23.859Z,580.75
2018-02-16T22:16:52.169Z,604.80
2018-02-16T22:19:20.568Z,419.45
2018-02-16T22:21:48.957Z,616.97
2018-02-16T22:24:17.318Z,443.48
2018-02-16T22:26:45.675Z,494.23
2018-02-16T22:29:14.021Z,604.42
2018-02-16T22:31:42.345Z,598.90
2018-02-16T22:34:10.683Z,718.28
2018-02-16T22:36:39.025Z,566.92
2018-02-16T22:39:11.962Z,612.20
2018-02-16T22:41:41.070Z,698.80
2018-02-16T22:44:10.173Z,514.83
2018-02-16T22:46:38.529Z,625.80
2018-02-16T22:49:07.636Z,501.92
2018-02-16T22:51:35.966Z,411.83
2018-02-16T22:54:04.309Z,490.85
2018-02-16T22:56:32.641Z,509.75
2018-02-16T22:59:01.748Z,348.58
2018-02-16T23:01:30.060Z,463.42
2018-02-16T23:03:58.398Z,812.65
2018-02-16T23:06:26.718Z,778.90
2018-02-16T23:08:55.056Z,655.50
2018-02-16T23:11:24.211Z,680.13
2018-02-16T23:13:52.570Z,766.40
2018-02-16T23:16:20.904Z,745.03
2018-02-16T23:18:50.027Z,783.70
2018-02-16T23:21:18.383Z,819.80
2018-02-16T23:23:47.488Z,827.47
2018-02-16T23:26:16.582Z,687.58
2018-02-16T23:28:45.702Z,895.40
2018-02-16T23:31:14.010Z,812.08
2018-02-16T23:33:42.361Z,607.70
2018-02-16T23:36:11.869Z,781.78
2018-02-16T23:38:40.439Z,862.22
2018-02-16T23:41:08.770Z,700.05
2018-02-16T23:43:37.020Z,618.87
2018-02-16T23:46:06.133Z,474.62
2018-02-16T23:48:34.494Z,762.05
2018-02-16T23:51:02.862Z,618.87
2018-02-16T23:53:32.017Z,830.42
2018-02-16T23:56:00.367Z,842.37
2018-02-16T23:58:28.782Z,846.37
